Time;durP1;ratioP1;P1;durP2;ratioP2;P2;SDS_P1;SDS_P2;PMS_P1;PMS_P2;Temp;Humidity;BMP_temperature;BMP_pressure;BME280_temperature;BME280_humidity;BME280_pressure;Samples;Min_cycle;Max_cycle;Signal;HPM_P1;HPM_P2
2022/03/12 00:01:40;;;;;;;17.75;10.10;;;;;;;10.31;38.77;101223.03;6245827;22;20000;-61
2022/03/12 00:04:06;;;;;;;15.18;9.57;;;;;;;10.35;38.55;101221.34;6245688;22;20059;-62
2022/03/12 00:06:37;;;;;;;15.70;9.93;;;;;;;10.32;38.84;101223.91;6245911;23;20009;-61
2022/03/12 00:09:03;;;;;;;17.15;9.90;;;;;;;10.35;39.19;101231.91;6245698;22;20000;-62
2022/03/12 00:11:35;;;;;;;19.55;10.65;;;;;;;10.35;38.77;101223.97;6245599;22;20005;-61
2022/03/12 00:14:03;;;;;;;17.17;9.73;;;;;;;10.32;38.94;101226.56;6245501;22;20055;-61
2022/03/12 00:16:30;;;;;;;19.63;10.50;;;;;;;10.29;39.11;101232.69;6245836;22;20004;-62
2022/03/12 00:18:58;;;;;;;19.30;10.63;;;;;;;10.30;38.91;101223.03;6244128;22;20012;-61
2022/03/12 00:22:08;;;;;;;17.50;9.98;;;;;;;10.27;39.00;101243.22;6245932;22;20477;-61
2022/03/12 00:24:34;;;;;;;15.00;9.43;;;;;;;10.34;38.80;101230.13;6245914;23;20083;-62
2022/03/12 00:27:01;;;;;;;19.27;10.80;;;;;;;10.31;39.09;101236.25;6245620;22;20031;-62
2022/03/12 00:29:27;;;;;;;19.17;10.27;;;;;;;10.30;39.36;101237.13;6245575;22;20005;-62
2022/03/12 00:31:58;;;;;;;16.80;9.60;;;;;;;10.27;39.52;101240.56;6245591;22;20087;-62
2022/03/12 00:34:26;;;;;;;17.55;10.02;;;;;;;10.24;40.10;101248.47;6245920;23;20011;-62
2022/03/12 00:36:52;;;;;;;17.67;9.52;;;;;;;10.21;39.77;101239.56;6245538;22;20010;-61
2022/03/12 00:39:27;;;;;;;17.15;10.55;;;;;;;10.20;40.09;101249.22;6245627;22;20429;-61
2022/03/12 00:41:58;;;;;;;18.42;10.40;;;;;;;10.17;40.41;101246.53;6245648;22;20004;-62
2022/03/12 00:44:23;;;;;;;18.83;10.45;;;;;;;10.16;40.41;101249.16;6244128;23;20375;-62
2022/03/12 00:46:48;;;;;;;20.42;10.75;;;;;;;10.18;40.31;101253.59;6245673;23;20004;-62
2022/03/12 00:49:14;;;;;;;20.05;11.20;;;;;;;10.15;40.59;101263.19;6245731;23;20007;-61
2022/03/12 00:51:41;;;;;;;15.27;9.80;;;;;;;10.16;40.51;101257.06;6245728;22;20365;-62
2022/03/12 00:54:10;;;;;;;15.27;9.68;;;;;;;10.14;41.09;101259.66;6245469;22;20050;-62
2022/03/12 00:56:41;;;;;;;17.77;9.70;;;;;;;10.12;40.99;101245.56;6245458;22;20091;-62
2022/03/12 00:59:07;;;;;;;23.88;10.60;;;;;;;10.10;41.38;101255.19;6245697;22;20066;-61
2022/03/12 01:01:33;;;;;;;17.50;10.60;;;;;;;10.09;42.21;101252.53;6245496;23;20414;-61
2022/03/12 01:03:58;;;;;;;16.17;10.30;;;;;;;10.06;42.19;101255.09;6245474;23;20310;-61
2022/03/12 01:06:24;;;;;;;18.08;9.75;;;;;;;10.06;42.22;101249.81;6245587;22;20004;-61
2022/03/12 01:08:49;;;;;;;18.08;10.25;;;;;;;10.09;42.58;101252.53;6245834;22;20011;-62
2022/03/12 01:11:15;;;;;;;17.83;10.27;;;;;;;10.13;42.29;101255.25;6247127;23;20414;-62
2022/03/12 01:13:41;;;;;;;17.38;9.93;;;;;;;10.10;42.75;101260.47;6247688;22;20081;-62
2022/03/12 01:16:07;;;;;;;16.98;10.15;;;;;;;10.09;42.34;101258.69;6247321;22;20004;-61
2022/03/12 01:18:37;;;;;;;20.25;10.32;;;;;;;10.11;42.42;101257.00;6247064;22;20011;-62
2022/03/12 01:21:16;;;;;;;16.48;10.10;;;;;;;10.09;43.03;101261.31;6245813;23;20367;-63
2022/03/12 01:23:43;;;;;;;17.48;10.00;;;;;;;10.12;43.20;101271.06;6247574;22;20081;-61
2022/03/12 01:26:10;;;;;;;17.58;9.93;;;;;;;10.13;43.42;101270.22;6247412;22;20001;-61
2022/03/12 01:28:35;;;;;;;16.77;10.52;;;;;;;10.11;43.73;101264.91;6247295;22;20019;-61
2022/03/12 01:31:03;;;;;;;17.45;10.07;;;;;;;10.10;44.00;101263.09;6247304;23;20004;-61
2022/03/12 01:33:29;;;;;;;16.48;10.52;;;;;;;10.09;45.34;101268.38;6247285;22;20004;-62
2022/03/12 01:35:54;;;;;;;17.85;9.80;;;;;;;10.02;45.66;101272.63;6247152;23;20019;-62
2022/03/12 01:38:29;;;;;;;19.00;10.60;;;;;;;10.00;45.73;101288.44;6247112;22;20031;-62
2022/03/12 01:40:55;;;;;;;17.52;10.23;;;;;;;9.97;46.52;101283.09;6246953;22;20004;-62
2022/03/12 01:43:21;;;;;;;21.20;10.35;;;;;;;9.96;46.02;101285.72;6247031;22;20046;-62
2022/03/12 01:45:47;;;;;;;18.55;11.13;;;;;;;9.94;46.95;101283.06;6245430;23;20012;-61
2022/03/12 01:48:12;;;;;;;18.63;11.10;;;;;;;9.91;45.53;101282.97;6247074;22;20036;-62
2022/03/12 01:50:39;;;;;;;19.02;10.10;;;;;;;9.92;47.01;101273.31;6247051;22;20110;-62
2022/03/12 01:53:10;;;;;;;21.02;11.20;;;;;;;9.92;46.78;101275.94;6247099;22;20433;-62
2022/03/12 01:55:39;;;;;;;20.17;10.38;;;;;;;9.87;47.78;101291.69;6246803;22;20004;-62
2022/03/12 01:58:06;;;;;;;17.38;11.25;;;;;;;9.84;47.71;101286.34;6247066;22;19996;-62
2022/03/12 02:00:49;;;;;;;16.30;9.98;;;;;;;9.83;47.72;101287.22;6246976;22;20000;-61
2022/03/12 02:03:21;;;;;;;18.17;10.98;;;;;;;9.81;49.15;101288.94;6246868;22;20001;-62
2022/03/12 02:05:47;;;;;;;18.15;10.90;;;;;;;9.77;49.83;101280.06;6247259;22;20031;-61
2022/03/12 02:08:14;;;;;;;20.05;10.55;;;;;;;9.72;49.16;101288.72;6246751;22;20000;-62
2022/03/12 02:10:43;;;;;;;23.45;10.50;;;;;;;9.71;49.73;101277.28;6246631;22;20087;-62
2022/03/12 02:13:11;;;;;;;19.98;10.77;;;;;;;9.69;49.43;101283.41;6246792;22;20057;-61
2022/03/12 02:15:37;;;;;;;19.92;11.27;;;;;;;9.67;49.37;101287.75;6247041;22;20026;-62
2022/03/12 02:18:03;;;;;;;19.00;11.57;;;;;;;9.64;49.23;101277.13;6246828;22;20028;-62
2022/03/12 02:20:29;;;;;;;15.85;10.25;;;;;;;9.66;49.11;101278.03;6246472;22;20008;-62
2022/03/12 02:22:55;;;;;;;17.38;11.00;;;;;;;9.68;49.02;101276.34;6246562;22;20007;-62
2022/03/12 02:25:41;;;;;;;16.58;10.63;;;;;;;9.66;49.45;101292.13;6245086;23;20073;-61
2022/03/12 02:28:17;;;;;;;15.85;10.57;;;;;;;9.61;49.31;101296.41;6246695;23;20065;-62
2022/03/12 02:30:51;;;;;;;16.15;10.40;;;;;;;9.57;50.36;101283.13;6246689;22;20004;-61
2022/03/12 02:33:26;;;;;;;17.88;10.80;;;;;;;9.54;50.65;101286.56;6246503;22;20071;-61
2022/03/12 02:35:53;;;;;;;18.80;10.35;;;;;;;9.53;49.78;101283.06;6246986;22;20071;-61
2022/03/12 02:38:21;;;;;;;18.15;10.68;;;;;;;9.50;50.14;101277.69;6246732;23;20430;-61
2022/03/12 02:40:50;;;;;;;17.63;10.25;;;;;;;9.52;49.46;101283.03;6246468;22;20484;-61
2022/03/12 02:43:26;;;;;;;17.02;10.38;;;;;;;9.52;49.48;101288.31;6246501;22;20008;-61
2022/03/12 02:45:57;;;;;;;18.63;10.75;;;;;;;9.52;49.86;101298.88;6246432;22;20007;-61
2022/03/12 02:48:25;;;;;;;19.42;10.82;;;;;;;9.52;49.52;101296.22;6244995;23;20004;-61
2022/03/12 02:50:52;;;;;;;17.00;11.00;;;;;;;9.52;49.62;101294.47;6246779;22;20000;-62
2022/03/12 02:53:17;;;;;;;18.20;10.80;;;;;;;9.51;49.68;101299.72;6246397;22;20028;-61
2022/03/12 02:55:45;;;;;;;16.38;10.70;;;;;;;9.52;49.64;101299.75;6246308;22;20007;-62
2022/03/12 02:58:10;;;;;;;20.70;11.35;;;;;;;9.51;49.40;101303.25;6246458;22;20425;-62
2022/03/12 03:00:37;;;;;;;17.92;10.60;;;;;;;9.50;49.60;101300.56;6246519;22;20000;-62
2022/03/12 03:03:05;;;;;;;21.08;11.57;;;;;;;9.50;49.07;101298.81;6245415;23;20074;-62
2022/03/12 03:05:44;;;;;;;20.42;11.52;;;;;;;9.52;48.94;101310.31;6246010;22;20008;-62
2022/03/12 03:08:13;;;;;;;15.77;10.90;;;;;;;9.53;48.49;101311.19;6244801;23;20004;-61
2022/03/12 03:10:43;;;;;;;19.17;10.32;;;;;;;9.51;49.33;101312.91;6246179;22;20083;-61
2022/03/12 03:13:19;;;;;;;16.85;10.98;;;;;;;9.49;49.26;101309.34;6246104;22;20007;-62
2022/03/12 03:15:51;;;;;;;18.00;10.68;;;;;;;9.51;49.17;101297.09;6246210;22;20028;-62
2022/03/12 03:18:20;;;;;;;19.13;10.85;;;;;;;9.50;49.77;101303.19;6246089;22;20340;-62
2022/03/12 03:20:48;;;;;;;18.98;10.68;;;;;;;9.44;49.83;101301.31;6246511;22;20004;-62
2022/03/12 03:23:14;;;;;;;18.38;10.02;;;;;;;9.40;49.76;101307.38;6246147;22;20008;-61
2022/03/12 03:25:40;;;;;;;18.38;10.73;;;;;;;9.38;49.64;101319.66;6245962;22;20039;-62
2022/03/12 03:28:08;;;;;;;16.30;10.48;;;;;;;9.37;50.25;101314.31;6246067;22;20059;-62
2022/03/12 03:30:38;;;;;;;16.92;10.88;;;;;;;9.30;50.31;101312.44;6246076;22;20000;-62
2022/03/12 03:33:07;;;;;;;19.20;10.05;;;;;;;9.27;50.12;101321.13;6245800;22;20000;-62
2022/03/12 03:35:33;;;;;;;20.40;10.98;;;;;;;9.21;50.28;101319.25;6246423;22;20058;-62
2022/03/12 03:37:58;;;;;;;18.13;10.48;;;;;;;9.14;50.85;101319.97;6246094;22;20004;-60
2022/03/12 03:40:25;;;;;;;20.83;10.88;;;;;;;9.11;50.98;101324.25;6246016;22;20128;-62
2022/03/12 03:42:50;;;;;;;17.25;10.43;;;;;;;9.09;51.26;101332.13;6246245;22;20012;-62
2022/03/12 03:45:24;;;;;;;17.20;10.52;;;;;;;9.05;51.85;101329.41;6246203;22;20378;-62
2022/03/12 03:47:51;;;;;;;17.33;10.10;;;;;;;9.02;52.89;101339.00;6244443;23;20413;-61
2022/03/12 03:50:25;;;;;;;17.25;9.90;;;;;;;9.00;52.62;101331.91;6246012;22;20004;-62
2022/03/12 03:53:02;;;;;;;15.02;9.82;;;;;;;8.96;52.73;101327.44;6246030;22;20333;-61
2022/03/12 03:55:27;;;;;;;16.50;10.10;;;;;;;8.91;53.97;101336.97;6245845;22;20425;-62
2022/03/12 03:57:54;;;;;;;17.85;9.88;;;;;;;8.80;54.98;101343.69;6246281;22;20008;-61
2022/03/12 04:00:23;;;;;;;21.23;10.18;;;;;;;8.76;56.20;101340.97;6244542;23;20010;-61
2022/03/12 04:03:08;;;;;;;18.63;10.00;;;;;;;8.75;55.87;101340.94;6244329;23;20008;-61
2022/03/12 04:05:35;;;;;;;15.77;10.18;;;;;;;8.74;55.59;101347.06;6245747;22;20054;-62
2022/03/12 04:08:04;;;;;;;19.20;10.38;;;;;;;8.74;55.19;101347.06;6245872;22;20000;-61
2022/03/12 04:10:37;;;;;;;17.33;10.43;;;;;;;8.72;55.18;101346.13;6245884;22;20337;-61
2022/03/12 04:13:16;;;;;;;15.10;9.55;;;;;;;8.70;54.11;101359.25;6246176;22;20004;-61
2022/03/12 04:15:42;;;;;;;18.25;9.90;;;;;;;8.65;55.05;101359.97;6245877;22;20004;-61
2022/03/12 04:18:07;;;;;;;17.10;11.27;;;;;;;8.60;54.89;101358.97;6245796;22;20013;-62
2022/03/12 04:20:34;;;;;;;17.05;10.77;;;;;;;8.57;55.15;101369.44;6245383;22;20053;-61
2022/03/12 04:22:59;;;;;;;16.70;10.48;;;;;;;8.53;54.73;101365.81;6244267;23;20042;-61
2022/03/12 04:25:25;;;;;;;15.80;10.38;;;;;;;8.51;55.27;101367.50;6245671;23;20016;-61
2022/03/12 04:27:51;;;;;;;17.55;10.50;;;;;;;8.50;55.95;101368.38;6245856;22;20054;-62
2022/03/12 04:30:20;;;;;;;17.27;10.35;;;;;;;8.46;56.12;101370.00;6246133;22;20007;-61
2022/03/12 04:32:46;;;;;;;18.52;10.73;;;;;;;8.45;57.32;101362.97;6245760;22;20005;-61
2022/03/12 04:35:13;;;;;;;14.35;9.50;;;;;;;8.43;57.70;101366.41;6245622;22;20000;-61
2022/03/12 04:37:38;;;;;;;15.93;10.13;;;;;;;8.40;57.66;101369.88;6246010;22;20015;-61
2022/03/12 04:40:11;;;;;;;17.55;10.02;;;;;;;8.36;58.81;101372.34;6245764;22;20071;-61
2022/03/12 04:42:40;;;;;;;19.15;10.27;;;;;;;8.33;58.32;101367.84;6245817;22;20017;-61
2022/03/12 04:45:09;;;;;;;14.60;9.60;;;;;;;8.31;58.75;101377.47;6247347;22;20012;-62
2022/03/12 04:47:35;;;;;;;16.08;9.63;;;;;;;8.31;58.97;101373.91;6247906;22;20015;-62
2022/03/12 04:50:02;;;;;;;19.48;10.07;;;;;;;8.31;58.84;101373.91;6247737;22;20057;-62
2022/03/12 04:52:29;;;;;;;16.17;10.45;;;;;;;8.25;58.82;101380.81;6247503;22;20000;-62
2022/03/12 04:54:56;;;;;;;20.15;10.73;;;;;;;8.24;58.85;101376.38;6247556;23;20046;-61
2022/03/12 04:57:22;;;;;;;15.20;9.65;;;;;;;8.24;58.37;101378.13;6247508;22;20000;-61
2022/03/12 04:59:47;;;;;;;16.73;10.85;;;;;;;8.15;58.55;101377.88;6247796;22;20086;-61
2022/03/12 05:02:14;;;;;;;19.08;10.23;;;;;;;8.15;59.69;101380.50;6247792;22;20079;-61
2022/03/12 05:04:40;;;;;;;17.23;10.88;;;;;;;8.14;58.87;101384.88;6247282;23;20034;-62
2022/03/12 05:07:14;;;;;;;16.92;10.13;;;;;;;8.08;59.25;101389.94;6247821;22;20425;-62
2022/03/12 05:09:44;;;;;;;15.90;10.45;;;;;;;8.04;59.84;101391.59;6247409;23;20004;-61
2022/03/12 05:12:10;;;;;;;19.65;9.95;;;;;;;8.04;60.55;101396.84;6247398;22;20004;-61
2022/03/12 05:14:35;;;;;;;17.55;10.95;;;;;;;8.01;60.58;101386.25;6247428;22;20379;-61
2022/03/12 05:17:05;;;;;;;21.17;10.45;;;;;;;8.00;60.88;101388.81;6247525;22;20004;-61
2022/03/12 05:19:35;;;;;;;16.30;10.07;;;;;;;7.99;61.08;101387.03;6247084;22;20499;-61
2022/03/12 05:22:01;;;;;;;19.95;10.27;;;;;;;7.98;61.86;101396.69;6247285;23;20011;-61
2022/03/12 05:24:26;;;;;;;18.05;9.93;;;;;;;8.00;62.70;101396.72;6247221;22;20004;-61
2022/03/12 05:26:52;;;;;;;17.80;10.10;;;;;;;7.99;63.32;101393.19;6247528;22;20011;-62
2022/03/12 05:29:18;;;;;;;17.02;9.85;;;;;;;8.00;63.00;101407.25;6247191;23;20046;-61
2022/03/12 05:31:44;;;;;;;17.45;9.98;;;;;;;7.96;63.40;101408.88;6247096;22;20000;-61
2022/03/12 05:34:09;;;;;;;14.13;9.63;;;;;;;7.88;64.30;101413.06;6247174;23;20004;-61
2022/03/12 05:36:36;;;;;;;14.18;8.82;;;;;;;7.87;64.42;101416.50;6247222;22;20000;-62
2022/03/12 05:39:03;;;;;;;14.55;9.40;;;;;;;7.87;64.99;101427.03;6247093;22;19999;-62
2022/03/12 05:41:29;;;;;;;14.45;9.40;;;;;;;7.88;65.66;101420.03;6247125;22;20074;-61
2022/03/12 05:43:55;;;;;;;15.57;9.27;;;;;;;7.87;66.04;101415.63;6247071;23;20000;-61
2022/03/12 05:46:21;;;;;;;15.63;9.68;;;;;;;7.86;65.94;101419.09;6247301;22;20056;-62
2022/03/12 05:48:47;;;;;;;19.73;9.88;;;;;;;7.81;67.10;101421.59;6245416;23;20014;-61
2022/03/12 05:51:18;;;;;;;16.45;9.27;;;;;;;7.76;66.86;101424.09;6247120;22;20000;-61
2022/03/12 05:53:44;;;;;;;14.65;9.13;;;;;;;7.76;66.76;101424.09;6247131;22;20038;-61
2022/03/12 05:56:13;;;;;;;14.60;9.30;;;;;;;7.77;66.92;101423.22;6246577;22;20008;-62
2022/03/12 05:58:39;;;;;;;15.40;9.40;;;;;;;7.77;66.27;101423.22;6247056;22;20008;-61
2022/03/12 06:01:06;;;;;;;15.30;9.52;;;;;;;7.78;67.22;101425.00;6246792;23;20417;-61
2022/03/12 06:03:32;;;;;;;15.73;10.35;;;;;;;7.76;67.25;101429.34;6246878;22;20004;-62
2022/03/12 06:05:58;;;;;;;15.23;9.55;;;;;;;7.75;67.32;101438.09;6246913;22;20004;-61
2022/03/12 06:08:26;;;;;;;20.42;9.88;;;;;;;7.71;67.97;101425.69;6246791;22;20007;-61
2022/03/12 06:10:55;;;;;;;15.70;9.65;;;;;;;7.69;67.83;101434.34;6246745;22;20034;-61
2022/03/12 06:13:23;;;;;;;14.75;9.65;;;;;;;7.65;68.69;101443.88;6247043;22;20365;-61
2022/03/12 06:15:55;;;;;;;19.88;9.73;;;;;;;7.66;67.84;101439.50;6246961;22;20035;-62
2022/03/12 06:18:23;;;;;;;17.00;9.90;;;;;;;7.65;69.17;101428.09;6246658;22;20003;-61
2022/03/12 06:20:49;;;;;;;16.27;9.23;;;;;;;7.67;68.75;101438.69;6246811;22;20329;-61
2022/03/12 06:23:15;;;;;;;18.05;9.85;;;;;;;7.69;67.82;101439.63;6246675;22;20000;-62
2022/03/12 06:25:41;;;;;;;14.88;9.63;;;;;;;7.68;69.38;101438.72;6246706;22;20059;-61
2022/03/12 06:28:12;;;;;;;13.65;8.70;;;;;;;7.71;69.10;101443.22;6246683;22;20004;-61
2022/03/12 06:30:40;;;;;;;13.52;9.50;;;;;;;7.69;68.84;101451.03;6246510;22;20445;-61
2022/03/12 06:33:07;;;;;;;16.13;9.80;;;;;;;7.66;69.31;101453.53;6246470;22;20106;-61
2022/03/12 06:35:32;;;;;;;15.02;9.52;;;;;;;7.68;69.54;101457.13;6246906;22;20087;-62
2022/03/12 06:37:58;;;;;;;14.35;9.32;;;;;;;7.70;69.66;101455.44;6246490;22;20061;-61
2022/03/12 06:40:29;;;;;;;15.95;8.90;;;;;;;7.74;69.61;101462.59;6246560;22;20030;-61
2022/03/12 06:42:59;;;;;;;16.73;9.55;;;;;;;7.77;70.65;101451.28;6246582;22;20000;-61
2022/03/12 06:45:25;;;;;;;15.27;9.35;;;;;;;7.78;71.02;101450.41;6246197;22;20004;-61
2022/03/12 06:47:52;;;;;;;14.10;9.30;;;;;;;7.77;70.90;101456.53;6246437;22;20000;-61
2022/03/12 06:50:22;;;;;;;13.93;8.77;;;;;;;7.80;71.21;101461.03;6246408;22;20000;-62
2022/03/12 06:52:50;;;;;;;14.48;9.00;;;;;;;7.84;71.80;101466.44;6246420;22;20011;-61
2022/03/12 06:55:18;;;;;;;13.65;9.23;;;;;;;7.83;72.90;101476.88;6246869;22;20079;-61
2022/03/12 06:57:44;;;;;;;13.18;8.85;;;;;;;7.87;72.48;101473.50;6246435;22;20130;-62
2022/03/12 07:00:24;;;;;;;13.77;9.35;;;;;;;7.91;72.03;101470.13;6246571;22;20043;-61
2022/03/12 07:02:53;;;;;;;17.02;9.32;;;;;;;7.93;73.10;101477.22;6246525;22;20031;-61
2022/03/12 07:05:20;;;;;;;18.08;9.75;;;;;;;7.98;72.95;101478.25;6246190;22;20008;-61
2022/03/12 07:07:47;;;;;;;12.32;8.43;;;;;;;8.06;72.71;101483.78;6245776;23;20061;-61
2022/03/12 07:10:18;;;;;;;13.10;8.93;;;;;;;8.16;73.08;101487.56;6246161;22;20444;-61
2022/03/12 07:12:45;;;;;;;12.88;8.38;;;;;;;8.19;72.80;101485.94;6246394;22;20007;-61
2022/03/12 07:15:11;;;;;;;12.90;8.25;;;;;;;8.24;72.67;101493.97;6244713;23;20034;-61
2022/03/12 07:17:37;;;;;;;13.93;8.98;;;;;;;8.33;73.62;101490.72;6246107;22;20035;-61
2022/03/12 07:20:03;;;;;;;13.40;8.43;;;;;;;8.42;72.91;101497.19;6245643;22;20012;-61
2022/03/12 07:22:30;;;;;;;15.88;8.52;;;;;;;8.50;73.38;101495.69;6245983;22;20069;-62
2022/03/12 07:24:56;;;;;;;13.43;8.38;;;;;;;8.56;72.57;101494.94;6246285;22;20059;-61
2022/03/12 07:27:22;;;;;;;12.75;8.90;;;;;;;8.61;72.67;101503.00;6245801;22;20487;-61
2022/03/12 07:29:47;;;;;;;15.07;8.60;;;;;;;8.67;72.44;101504.06;6246421;22;20070;-61
2022/03/12 07:32:14;;;;;;;13.38;8.63;;;;;;;8.74;71.92;101510.44;6246037;22;20032;-61
2022/03/12 07:34:40;;;;;;;13.02;8.32;;;;;;;8.82;72.09;101510.63;6245968;22;20008;-62
2022/03/12 07:37:09;;;;;;;12.75;8.45;;;;;;;8.91;71.59;101514.44;6246069;22;20081;-61
2022/03/12 07:39:38;;;;;;;13.88;8.60;;;;;;;9.03;71.83;101511.22;6246004;22;20299;-61
2022/03/12 07:42:05;;;;;;;10.90;7.68;;;;;;;9.16;71.23;101520.38;6245673;22;20004;-61
2022/03/12 07:44:30;;;;;;;11.60;7.82;;;;;;;9.23;71.13;101530.25;6246092;22;20004;-61
2022/03/12 07:46:56;;;;;;;11.60;8.32;;;;;;;9.30;70.82;101536.59;6244275;23;20011;-61
2022/03/12 07:49:23;;;;;;;13.30;8.23;;;;;;;9.38;71.04;101532.38;6245884;22;20011;-61
2022/03/12 07:51:50;;;;;;;12.05;8.40;;;;;;;9.50;70.55;101530.06;6244148;23;20018;-59
2022/03/12 07:54:16;;;;;;;11.50;7.18;;;;;;;9.69;70.69;101532.34;6245791;22;20004;-59
2022/03/12 07:56:43;;;;;;;15.73;7.75;;;;;;;9.86;70.15;101542.44;6245657;22;20046;-62
2022/03/12 07:59:08;;;;;;;11.52;7.15;;;;;;;10.00;69.49;101533.09;6245697;22;20012;-62
2022/03/12 08:01:34;;;;;;;11.35;7.60;;;;;;;10.17;68.76;101534.38;6245722;22;20075;-62
2022/03/12 08:04:01;;;;;;;11.48;7.03;;;;;;;10.26;68.57;101539.03;6246022;22;20000;-62
2022/03/12 08:06:29;;;;;;;11.32;7.32;;;;;;;10.34;68.32;101537.44;6244284;23;20011;-62
2022/03/12 08:08:56;;;;;;;13.20;7.53;;;;;;;10.39;68.37;101538.44;6246128;22;20004;-59
2022/03/12 08:11:25;;;;;;;11.25;7.70;;;;;;;10.40;68.29;101547.25;6245526;22;20000;-60
2022/03/12 08:13:51;;;;;;;11.20;7.10;;;;;;;10.50;68.24;101550.16;6245705;22;20350;-59
2022/03/12 08:16:16;;;;;;;12.13;7.07;;;;;;;10.59;67.63;101560.03;6245723;22;20042;-59
2022/03/12 08:18:43;;;;;;;11.55;7.03;;;;;;;10.62;67.73;101552.19;6246271;22;20004;-60
2022/03/12 08:21:14;;;;;;;10.18;7.18;;;;;;;10.66;67.89;101559.31;6247660;22;20042;-59
2022/03/12 08:23:40;;;;;;;10.25;6.80;;;;;;;10.72;67.53;101558.56;6247649;22;20438;-60
2022/03/12 08:26:06;;;;;;;10.25;6.25;;;;;;;10.80;67.33;101559.63;6247742;22;20005;-60
2022/03/12 08:28:34;;;;;;;12.40;6.63;;;;;;;10.93;66.99;101561.66;6247772;22;20444;-60
2022/03/12 08:31:03;;;;;;;9.60;6.57;;;;;;;11.03;66.81;101566.25;6247853;22;20418;-60
2022/03/12 08:33:32;;;;;;;10.25;6.47;;;;;;;11.23;66.40;101573.72;6248102;22;20011;-60
2022/03/12 08:35:58;;;;;;;12.43;6.00;;;;;;;11.45;65.57;101569.72;6248035;22;20000;-60
2022/03/12 08:38:29;;;;;;;9.18;6.45;;;;;;;11.45;64.81;101585.59;6247923;22;20035;-59
2022/03/12 08:40:54;;;;;;;8.52;6.35;;;;;;;11.43;65.55;101577.59;6247413;22;20000;-59
2022/03/12 08:43:21;;;;;;;10.10;6.32;;;;;;;11.49;65.66;101577.75;6247620;22;20007;-60
2022/03/12 08:45:46;;;;;;;8.82;6.07;;;;;;;11.62;64.52;101577.97;6247656;22;20062;-59
2022/03/12 08:48:17;;;;;;;12.20;6.40;;;;;;;11.75;64.82;101580.84;6247627;22;20000;-60
2022/03/12 08:50:47;;;;;;;10.10;6.35;;;;;;;11.83;64.72;101578.38;6247733;22;20004;-62
2022/03/12 08:53:15;;;;;;;15.60;7.93;;;;;;;11.99;64.04;101572.50;6247597;22;20035;-60
2022/03/12 08:55:40;;;;;;;11.35;6.75;;;;;;;12.17;63.76;101573.66;6247497;22;20007;-59
2022/03/12 08:58:07;;;;;;;10.30;5.72;;;;;;;12.28;62.58;101580.88;6247617;22;20043;-60
2022/03/12 09:00:33;;;;;;;8.50;6.10;;;;;;;12.32;63.03;101576.53;6247348;22;20004;-62
2022/03/12 09:02:59;;;;;;;10.95;5.90;;;;;;;12.34;62.53;101589.81;6247765;22;20083;-62
2022/03/12 09:05:25;;;;;;;8.52;5.38;;;;;;;12.36;62.26;101582.75;6247727;22;20042;-59
2022/03/12 09:07:52;;;;;;;9.40;5.97;;;;;;;12.29;62.76;101581.81;6247706;22;20050;-60
2022/03/12 09:10:19;;;;;;;8.10;5.57;;;;;;;12.31;62.91;101579.16;6247161;22;20030;-62
2022/03/12 09:12:45;;;;;;;11.68;5.72;;;;;;;12.37;62.83;101590.72;6247759;22;20000;-61
2022/03/12 09:15:12;;;;;;;7.95;5.40;;;;;;;12.46;62.04;101587.31;6247420;22;20041;-60
2022/03/12 09:17:37;;;;;;;7.70;5.55;;;;;;;12.51;61.59;101590.97;6247457;22;20078;-60
2022/03/12 09:20:07;;;;;;;8.98;5.90;;;;;;;12.48;61.75;101589.16;6247082;22;20496;-61
2022/03/12 09:22:33;;;;;;;9.13;5.10;;;;;;;12.54;61.51;101594.53;6247471;22;20007;-61
2022/03/12 09:25:03;;;;;;;8.70;5.20;;;;;;;12.63;62.17;101600.84;6247025;22;20008;-61
2022/03/12 09:27:29;;;;;;;9.82;5.72;;;;;;;12.69;61.07;101596.53;6247305;22;20010;-61
2022/03/12 09:29:55;;;;;;;8.80;4.50;;;;;;;12.73;59.95;101594.81;6247050;22;20333;-61
2022/03/12 09:32:20;;;;;;;12.40;5.30;;;;;;;12.73;59.96;101586.84;6246949;22;20079;-60
2022/03/12 09:34:46;;;;;;;9.30;4.07;;;;;;;12.69;58.85;101599.16;6247212;22;20031;-60
2022/03/12 09:37:12;;;;;;;6.45;3.85;;;;;;;12.60;59.13;101603.47;6247101;22;20000;-61
2022/03/12 09:39:44;;;;;;;8.23;3.80;;;;;;;12.61;58.17;101600.81;6247005;22;20008;-61
2022/03/12 09:42:09;;;;;;;10.65;4.30;;;;;;;12.86;57.76;101603.81;6247477;22;20311;-60
2022/03/12 09:44:35;;;;;;;8.25;4.10;;;;;;;12.94;57.35;101612.78;6247083;22;20011;-61
2022/03/12 09:47:01;;;;;;;8.55;3.85;;;;;;;12.98;56.26;101612.84;6247143;23;20000;-61
2022/03/12 09:49:27;;;;;;;7.57;3.72;;;;;;;13.03;56.79;101594.31;6247065;22;20004;-60
2022/03/12 09:51:53;;;;;;;11.45;4.10;;;;;;;13.05;56.98;101589.91;6246799;22;20083;-62
2022/03/12 09:54:18;;;;;;;8.05;3.75;;;;;;;13.12;56.35;101598.84;6246827;22;20004;-61
2022/03/12 09:56:45;;;;;;;9.40;3.97;;;;;;;13.20;55.42;101587.47;6245483;23;20054;-61
2022/03/12 09:59:10;;;;;;;8.57;3.97;;;;;;;13.36;55.01;101596.53;6246920;22;20083;-61
2022/03/12 10:01:36;;;;;;;11.10;3.30;;;;;;;13.52;54.10;101592.25;6247123;22;20040;-61
2022/03/12 10:04:02;;;;;;;9.30;3.42;;;;;;;13.51;53.31;101601.09;6246875;22;20436;-61
2022/03/12 10:06:31;;;;;;;8.18;3.10;;;;;;;13.45;53.18;101612.56;6246804;22;20329;-61
2022/03/12 10:08:57;;;;;;;7.47;3.30;;;;;;;13.38;53.54;101615.13;6246652;22;20082;-62
2022/03/12 10:11:23;;;;;;;9.35;3.50;;;;;;;13.30;53.34;101611.47;6247077;22;20330;-61
2022/03/12 10:13:49;;;;;;;11.45;3.72;;;;;;;13.33;53.22;101619.50;6247083;22;20065;-61
2022/03/12 10:16:18;;;;;;;7.75;3.70;;;;;;;13.44;53.01;101624.03;6247193;22;20008;-61
2022/03/12 10:18:44;;;;;;;10.82;3.22;;;;;;;13.51;53.81;101615.28;6246723;22;20004;-61
2022/03/12 10:21:09;;;;;;;9.05;3.40;;;;;;;13.64;53.00;101616.28;6245546;22;20438;-61
2022/03/12 10:23:35;;;;;;;10.88;3.60;;;;;;;13.69;52.31;101614.56;6246710;22;20000;-62
2022/03/12 10:26:03;;;;;;;14.85;3.58;;;;;;;13.83;53.38;101613.81;6246929;22;20000;-61
2022/03/12 10:28:34;;;;;;;8.85;3.38;;;;;;;13.90;52.25;101602.38;6246579;22;20318;-61
2022/03/12 10:31:05;;;;;;;7.50;3.20;;;;;;;13.95;52.29;101600.66;6245033;23;20027;-60
2022/03/12 10:33:31;;;;;;;10.93;3.50;;;;;;;13.95;52.42;101614.81;6246604;22;20004;-61
2022/03/12 10:36:14;;;;;;;10.05;3.20;;;;;;;13.80;51.24;101612.03;6246580;22;20078;-60
2022/03/12 10:38:52;;;;;;;8.05;3.50;;;;;;;13.51;51.60;101620.59;6246600;22;20004;-61
2022/03/12 10:41:19;;;;;;;7.10;3.30;;;;;;;13.49;52.14;101606.41;6246549;22;20004;-61
2022/03/12 10:43:54;;;;;;;6.97;3.15;;;;;;;13.61;52.37;101616.25;6246386;22;20000;-60
2022/03/12 10:46:27;;;;;;;7.97;3.20;;;;;;;13.83;52.11;101621.78;6246472;22;20012;-60
2022/03/12 10:48:56;;;;;;;;;;;;;;;13.96;51.53;101618.38;6246963;22;20001;-61
2022/03/12 10:51:29;;;;;;;7.97;3.33;;;;;;;13.88;51.41;101620.97;6244386;23;19916;-61
2022/03/12 10:54:07;;;;;;;7.70;3.08;;;;;;;13.98;51.18;101617.50;6244489;23;20012;-61
2022/03/12 10:56:43;;;;;;;9.82;2.95;;;;;;;14.21;50.62;101609.72;6244677;23;20031;-61
2022/03/12 10:59:21;;;;;;;9.70;3.30;;;;;;;14.27;49.96;101607.13;6246500;22;20015;-61
2022/03/12 11:01:53;;;;;;;7.25;3.40;;;;;;;14.56;50.21;101600.25;6246256;22;20422;-61
2022/03/12 11:04:21;;;;;;;10.68;3.22;;;;;;;14.98;48.66;101603.16;6246128;22;20054;-61
2022/03/12 11:06:48;;;;;;;9.30;3.10;;;;;;;15.36;49.34;101606.88;6246394;22;20014;-61
2022/03/12 11:09:21;;;;;;;9.75;3.10;;;;;;;15.69;46.61;101608.78;6246388;22;20004;-61
2022/03/12 11:11:46;;;;;;;10.05;3.17;;;;;;;15.79;46.02;101618.56;6246561;22;20015;-60
2022/03/12 11:14:30;;;;;;;6.70;2.80;;;;;;;15.83;45.84;101614.13;6246152;22;20341;-61
2022/03/12 11:16:56;;;;;;;8.38;2.85;;;;;;;15.89;44.42;101606.16;6246275;22;20019;-61
2022/03/12 11:19:45;;;;;;;11.25;2.75;;;;;;;15.79;44.83;101623.88;6245800;22;20012;-61
2022/03/12 11:22:13;;;;;;;9.68;3.30;;;;;;;15.83;44.75;101612.34;6245671;23;20020;-61
2022/03/12 11:24:48;;;;;;;7.85;3.03;;;;;;;15.98;44.63;101608.81;6244331;23;20012;-61